sensor_id;sensor_type;location;lat;lon;timestamp;pressure;altitude;pressure_sealevel;temperature;humidity
52249;BME280;38541;48.130;8.378;2023-05-23T00:00:57;92710.63;;;14.46;75.09
52249;BME280;38541;48.130;8.378;2023-05-23T00:03:25;92712.19;;;14.47;75.39
52249;BME280;38541;48.130;8.378;2023-05-23T00:05:52;92705.34;;;14.46;75.83
52249;BME280;38541;48.130;8.378;2023-05-23T00:08:18;92713.13;;;14.37;75.45
52249;BME280;38541;48.130;8.378;2023-05-23T00:10:45;92709.22;;;14.35;75.17
52249;BME280;38541;48.130;8.378;2023-05-23T00:13:11;92711.06;;;14.34;75.08
52249;BME280;38541;48.130;8.378;2023-05-23T00:15:38;92721.41;;;14.31;75.42
52249;BME280;38541;48.130;8.378;2023-05-23T00:18:07;92720.41;;;14.26;75.46
52249;BME280;38541;48.130;8.378;2023-05-23T00:20:41;92718.13;;;14.20;75.92
52249;BME280;38541;48.130;8.378;2023-05-23T00:23:09;92716.91;;;14.12;75.63
52249;BME280;38541;48.130;8.378;2023-05-23T00:25:36;92716.47;;;14.05;75.86
52249;BME280;38541;48.130;8.378;2023-05-23T00:28:04;92726.53;;;14.03;75.61
52249;BME280;38541;48.130;8.378;2023-05-23T00:30:32;92715.25;;;13.97;75.82
52249;BME280;38541;48.130;8.378;2023-05-23T00:32:59;92716.59;;;13.94;76.14
52249;BME280;38541;48.130;8.378;2023-05-23T00:35:28;92709.22;;;13.91;75.46
52249;BME280;38541;48.130;8.378;2023-05-23T00:37:55;92707.38;;;13.92;75.51
52249;BME280;38541;48.130;8.378;2023-05-23T00:40:22;92716.66;;;13.89;75.81
52249;BME280;38541;48.130;8.378;2023-05-23T00:42:48;92711.44;;;13.84;76.03
52249;BME280;38541;48.130;8.378;2023-05-23T00:45:15;92715.72;;;13.80;77.24
52249;BME280;38541;48.130;8.378;2023-05-23T00:47:43;92718.63;;;13.78;77.24
52249;BME280;38541;48.130;8.378;2023-05-23T00:50:12;92718.44;;;13.75;77.50
52249;BME280;38541;48.130;8.378;2023-05-23T00:52:41;92721.56;;;13.77;77.89
52249;BME280;38541;48.130;8.378;2023-05-23T00:55:08;92717.41;;;13.70;77.38
52249;BME280;38541;48.130;8.378;2023-05-23T00:57:36;92723.25;;;13.67;77.13
52249;BME280;38541;48.130;8.378;2023-05-23T01:00:07;92717.53;;;13.60;76.59
52249;BME280;38541;48.130;8.378;2023-05-23T01:02:41;92726.78;;;13.58;76.41
52249;BME280;38541;48.130;8.378;2023-05-23T01:05:11;92729.72;;;13.56;76.59
52249;BME280;38541;48.130;8.378;2023-05-23T01:07:40;92731.00;;;13.59;77.74
52249;BME280;38541;48.130;8.378;2023-05-23T01:10:08;92734.13;;;13.61;77.46
52249;BME280;38541;48.130;8.378;2023-05-23T01:15:34;92741.88;;;13.52;78.89
52249;BME280;38541;48.130;8.378;2023-05-23T01:18:18;92734.59;;;13.44;77.74
52249;BME280;38541;48.130;8.378;2023-05-23T01:20:51;92731.41;;;13.41;76.89
52249;BME280;38541;48.130;8.378;2023-05-23T01:27:07;92733.06;;;13.32;75.89
52249;BME280;38541;48.130;8.378;2023-05-23T01:29:39;92725.72;;;13.29;76.06
52249;BME280;38541;48.130;8.378;2023-05-23T01:32:09;92732.88;;;13.23;75.47
52249;BME280;38541;48.130;8.378;2023-05-23T01:34:38;92733.75;;;13.19;75.68
52249;BME280;38541;48.130;8.378;2023-05-23T01:37:11;92730.06;;;13.15;76.01
52249;BME280;38541;48.130;8.378;2023-05-23T01:39:40;92731.69;;;13.10;77.14
52249;BME280;38541;48.130;8.378;2023-05-23T01:42:07;92725.84;;;13.13;78.46
52249;BME280;38541;48.130;8.378;2023-05-23T01:44:34;92727.44;;;13.15;78.55
52249;BME280;38541;48.130;8.378;2023-05-23T01:47:02;92725.34;;;13.11;78.48
52249;BME280;38541;48.130;8.378;2023-05-23T01:49:29;92727.28;;;13.01;77.73
52249;BME280;38541;48.130;8.378;2023-05-23T01:51:58;92722.03;;;13.01;77.25
52249;BME280;38541;48.130;8.378;2023-05-23T01:54:26;92725.47;;;12.96;77.33
52249;BME280;38541;48.130;8.378;2023-05-23T01:56:58;92728.91;;;12.96;78.15
52249;BME280;38541;48.130;8.378;2023-05-23T01:59:25;92717.84;;;12.94;78.50
52249;BME280;38541;48.130;8.378;2023-05-23T02:01:53;92727.53;;;13.04;80.39
52249;BME280;38541;48.130;8.378;2023-05-23T02:04:20;92721.69;;;13.07;80.90
52249;BME280;38541;48.130;8.378;2023-05-23T02:06:47;92720.59;;;13.13;81.27
52249;BME280;38541;48.130;8.378;2023-05-23T02:09:14;92716.38;;;13.12;79.64
52249;BME280;38541;48.130;8.378;2023-05-23T02:11:40;92718.06;;;13.03;77.98
52249;BME280;38541;48.130;8.378;2023-05-23T02:14:08;92723.09;;;12.99;77.58
52249;BME280;38541;48.130;8.378;2023-05-23T02:16:34;92724.94;;;12.99;77.78
52249;BME280;38541;48.130;8.378;2023-05-23T02:19:02;92723.03;;;13.05;79.83
52249;BME280;38541;48.130;8.378;2023-05-23T02:21:28;92729.56;;;13.12;80.98
52249;BME280;38541;48.130;8.378;2023-05-23T02:23:55;92730.69;;;13.06;79.87
52249;BME280;38541;48.130;8.378;2023-05-23T02:26:21;92737.06;;;13.00;78.04
52249;BME280;38541;48.130;8.378;2023-05-23T02:28:48;92729.75;;;12.92;76.98
52249;BME280;38541;48.130;8.378;2023-05-23T02:31:15;92725.28;;;12.87;78.21
52249;BME280;38541;48.130;8.378;2023-05-23T02:33:42;92725.88;;;12.79;78.35
52249;BME280;38541;48.130;8.378;2023-05-23T02:36:09;92724.56;;;12.81;78.84
52249;BME280;38541;48.130;8.378;2023-05-23T02:38:36;92723.25;;;12.79;78.94
52249;BME280;38541;48.130;8.378;2023-05-23T02:41:03;92728.56;;;12.74;79.81
52249;BME280;38541;48.130;8.378;2023-05-23T02:43:30;92731.47;;;12.72;79.97
52249;BME280;38541;48.130;8.378;2023-05-23T02:45:56;92738.31;;;12.73;80.76
52249;BME280;38541;48.130;8.378;2023-05-23T02:48:23;92731.47;;;12.72;80.06
52249;BME280;38541;48.130;8.378;2023-05-23T02:50:50;92730.97;;;12.70;79.32
52249;BME280;38541;48.130;8.378;2023-05-23T02:53:16;92732.03;;;12.69;78.83
52249;BME280;38541;48.130;8.378;2023-05-23T02:55:43;92734.72;;;12.64;78.51
52249;BME280;38541;48.130;8.378;2023-05-23T02:58:10;92738.41;;;12.63;78.76
52249;BME280;38541;48.130;8.378;2023-05-23T03:00:36;92740.75;;;12.64;79.21
52249;BME280;38541;48.130;8.378;2023-05-23T03:03:03;92730.75;;;12.61;78.02
52249;BME280;38541;48.130;8.378;2023-05-23T03:05:31;92730.00;;;12.61;78.73
52249;BME280;38541;48.130;8.378;2023-05-23T03:07:57;92735.25;;;12.61;78.47
52249;BME280;38541;48.130;8.378;2023-05-23T03:10:25;92736.84;;;12.56;77.91
52249;BME280;38541;48.130;8.378;2023-05-23T03:12:54;92728.22;;;12.51;78.04
52249;BME280;38541;48.130;8.378;2023-05-23T03:15:20;92734.84;;;12.43;78.08
52249;BME280;38541;48.130;8.378;2023-05-23T03:17:47;92734.03;;;12.43;79.08
52249;BME280;38541;48.130;8.378;2023-05-23T03:20:15;92734.84;;;12.43;79.47
52249;BME280;38541;48.130;8.378;2023-05-23T03:22:41;92732.97;;;12.44;79.10
52249;BME280;38541;48.130;8.378;2023-05-23T03:25:11;92741.19;;;12.42;78.05
52249;BME280;38541;48.130;8.378;2023-05-23T03:27:37;92747.56;;;12.31;78.35
52249;BME280;38541;48.130;8.378;2023-05-23T03:30:05;92741.81;;;12.23;78.63
52249;BME280;38541;48.130;8.378;2023-05-23T03:32:32;92741.00;;;12.23;79.04
52249;BME280;38541;48.130;8.378;2023-05-23T03:34:59;92745.72;;;12.26;78.54
52249;BME280;38541;48.130;8.378;2023-05-23T03:37:25;92744.44;;;12.23;78.73
52249;BME280;38541;48.130;8.378;2023-05-23T03:39:52;92739.69;;;12.25;79.59
52249;BME280;38541;48.130;8.378;2023-05-23T03:42:19;92738.59;;;12.32;80.28
52249;BME280;38541;48.130;8.378;2023-05-23T03:44:45;92737.75;;;12.41;80.42
52249;BME280;38541;48.130;8.378;2023-05-23T03:47:12;92744.78;;;12.51;80.40
52249;BME280;38541;48.130;8.378;2023-05-23T03:49:41;92741.91;;;12.53;79.51
52249;BME280;38541;48.130;8.378;2023-05-23T03:52:08;92745.81;;;12.61;79.39
52249;BME280;38541;48.130;8.378;2023-05-23T03:54:34;92736.28;;;12.65;79.60
52249;BME280;38541;48.130;8.378;2023-05-23T03:57:02;92743.59;;;12.73;79.98
52249;BME280;38541;48.130;8.378;2023-05-23T03:59:29;92746.44;;;12.82;80.11
52249;BME280;38541;48.130;8.378;2023-05-23T04:01:56;92742.97;;;12.87;80.14
52249;BME280;38541;48.130;8.378;2023-05-23T04:04:24;92744.22;;;12.94;80.36
52249;BME280;38541;48.130;8.378;2023-05-23T04:06:51;92744.44;;;13.03;80.12
52249;BME280;38541;48.130;8.378;2023-05-23T04:09:18;92756.03;;;13.02;79.87
52249;BME280;38541;48.130;8.378;2023-05-23T04:11:47;92753.34;;;13.07;79.69
52249;BME280;38541;48.130;8.378;2023-05-23T04:14:14;92752.53;;;13.12;79.86
52249;BME280;38541;48.130;8.378;2023-05-23T04:16:40;92750.06;;;13.21;80.15
52249;BME280;38541;48.130;8.378;2023-05-23T04:19:08;92747.16;;;13.22;80.11
52249;BME280;38541;48.130;8.378;2023-05-23T04:21:35;92745.75;;;13.30;80.36
52249;BME280;38541;48.130;8.378;2023-05-23T04:24:06;92746.25;;;13.37;80.56
52249;BME280;38541;48.130;8.378;2023-05-23T04:26:33;92750.16;;;13.40;80.28
52249;BME280;38541;48.130;8.378;2023-05-23T04:29:03;92755.44;;;13.40;80.81
52249;BME280;38541;48.130;8.378;2023-05-23T04:31:31;92754.63;;;13.45;81.04
52249;BME280;38541;48.130;8.378;2023-05-23T04:34:00;92759.06;;;13.49;81.43
52249;BME280;38541;48.130;8.378;2023-05-23T04:36:28;92765.03;;;13.60;81.10
52249;BME280;38541;48.130;8.378;2023-05-23T04:38:55;92763.91;;;13.66;80.95
52249;BME280;38541;48.130;8.378;2023-05-23T04:41:22;92767.84;;;13.69;80.77
52249;BME280;38541;48.130;8.378;2023-05-23T04:44:24;92770.44;;;13.74;80.44
52249;BME280;38541;48.130;8.378;2023-05-23T04:47:08;92771.94;;;13.80;80.91
52249;BME280;38541;48.130;8.378;2023-05-23T04:49:49;92773.69;;;13.90;81.01
52249;BME280;38541;48.130;8.378;2023-05-23T04:52:19;92766.22;;;13.97;81.83
52249;BME280;38541;48.130;8.378;2023-05-23T04:54:46;92763.28;;;13.99;82.57
52249;BME280;38541;48.130;8.378;2023-05-23T04:57:14;92775.38;;;14.05;82.78
52249;BME280;38541;48.130;8.378;2023-05-23T04:59:41;92775.25;;;14.16;82.67
52249;BME280;38541;48.130;8.378;2023-05-23T05:02:08;92775.13;;;14.26;82.63
52249;BME280;38541;48.130;8.378;2023-05-23T05:04:36;92780.00;;;14.38;82.11
52249;BME280;38541;48.130;8.378;2023-05-23T05:07:04;92777.19;;;14.48;82.02
52249;BME280;38541;48.130;8.378;2023-05-23T05:09:30;92771.78;;;14.59;81.80
52249;BME280;38541;48.130;8.378;2023-05-23T05:11:57;92774.59;;;14.67;81.60
52249;BME280;38541;48.130;8.378;2023-05-23T05:14:25;92766.81;;;14.76;81.65
52249;BME280;38541;48.130;8.378;2023-05-23T05:16:52;92767.22;;;14.83;81.32
52249;BME280;38541;48.130;8.378;2023-05-23T05:19:21;92775.53;;;14.96;81.05
52249;BME280;38541;48.130;8.378;2023-05-23T05:21:48;92771.34;;;15.09;81.11
52249;BME280;38541;48.130;8.378;2023-05-23T05:24:14;92771.09;;;15.24;80.65
52249;BME280;38541;48.130;8.378;2023-05-23T05:26:41;92774.66;;;15.34;80.32
52249;BME280;38541;48.130;8.378;2023-05-23T05:29:08;92772.91;;;15.43;80.33
52249;BME280;38541;48.130;8.378;2023-05-23T05:31:35;92769.78;;;15.55;80.45
52249;BME280;38541;48.130;8.378;2023-05-23T05:34:03;92771.25;;;15.61;80.15
52249;BME280;38541;48.130;8.378;2023-05-23T05:36:31;92776.66;;;15.70;80.67
52249;BME280;38541;48.130;8.378;2023-05-23T05:38:58;92773.47;;;15.73;80.24
52249;BME280;38541;48.130;8.378;2023-05-23T05:41:24;92789.91;;;15.70;80.24
52249;BME280;38541;48.130;8.378;2023-05-23T05:43:52;92779.81;;;15.72;80.45
52249;BME280;38541;48.130;8.378;2023-05-23T05:46:20;92787.56;;;15.68;80.03
52249;BME280;38541;48.130;8.378;2023-05-23T05:48:47;92790.22;;;15.68;79.85
52249;BME280;38541;48.130;8.378;2023-05-23T05:51:15;92793.38;;;15.71;79.97
52249;BME280;38541;48.130;8.378;2023-05-23T05:53:43;92791.78;;;15.69;79.83
52249;BME280;38541;48.130;8.378;2023-05-23T05:56:09;92793.94;;;15.67;79.67
52249;BME280;38541;48.130;8.378;2023-05-23T05:58:37;92797.84;;;15.70;79.89
52249;BME280;38541;48.130;8.378;2023-05-23T06:01:06;92791.19;;;15.73;79.54
52249;BME280;38541;48.130;8.378;2023-05-23T06:03:33;92797.09;;;15.69;79.54
52249;BME280;38541;48.130;8.378;2023-05-23T06:06:00;92797.31;;;15.73;79.55
52249;BME280;38541;48.130;8.378;2023-05-23T06:08:26;92797.91;;;15.84;79.37
52249;BME280;38541;48.130;8.378;2023-05-23T06:10:53;92797.81;;;15.89;79.49
52249;BME280;38541;48.130;8.378;2023-05-23T06:13:20;92795.78;;;16.00;79.64
52249;BME280;38541;48.130;8.378;2023-05-23T06:15:51;92798.03;;;16.07;78.95
52249;BME280;38541;48.130;8.378;2023-05-23T06:18:18;92800.38;;;16.08;78.62
52249;BME280;38541;48.130;8.378;2023-05-23T06:20:44;92798.41;;;16.00;78.25
52249;BME280;38541;48.130;8.378;2023-05-23T06:23:14;92806.09;;;16.02;79.01
52249;BME280;38541;48.130;8.378;2023-05-23T06:25:40;92800.09;;;15.96;78.69
52249;BME280;38541;48.130;8.378;2023-05-23T06:28:07;92801.47;;;15.93;77.78
52249;BME280;38541;48.130;8.378;2023-05-23T06:30:34;92801.84;;;16.01;78.11
52249;BME280;38541;48.130;8.378;2023-05-23T06:33:03;92808.44;;;16.03;77.72
52249;BME280;38541;48.130;8.378;2023-05-23T06:35:29;92805.38;;;16.10;77.51
52249;BME280;38541;48.130;8.378;2023-05-23T06:37:59;92810.09;;;16.13;77.17
52249;BME280;38541;48.130;8.378;2023-05-23T06:40:26;92810.91;;;16.14;77.60
52249;BME280;38541;48.130;8.378;2023-05-23T06:42:52;92807.16;;;16.15;77.23
52249;BME280;38541;48.130;8.378;2023-05-23T06:45:45;92815.22;;;16.23;77.06
52249;BME280;38541;48.130;8.378;2023-05-23T06:48:12;92819.31;;;16.30;76.71
52249;BME280;38541;48.130;8.378;2023-05-23T06:50:39;92818.72;;;16.33;76.06
52249;BME280;38541;48.130;8.378;2023-05-23T06:53:07;92816.78;;;16.38;76.09
52249;BME280;38541;48.130;8.378;2023-05-23T06:55:34;92816.88;;;16.47;75.94
52249;BME280;38541;48.130;8.378;2023-05-23T06:58:02;92810.16;;;16.64;75.40
52249;BME280;38541;48.130;8.378;2023-05-23T07:00:34;92817.00;;;16.79;75.24
52249;BME280;38541;48.130;8.378;2023-05-23T07:03:08;92813.53;;;16.92;74.84
52249;BME280;38541;48.130;8.378;2023-05-23T07:05:34;92811.56;;;16.98;74.00
52249;BME280;38541;48.130;8.378;2023-05-23T07:08:07;92809.75;;;17.07;73.24
52249;BME280;38541;48.130;8.378;2023-05-23T07:10:36;92817.84;;;17.02;73.07
52249;BME280;38541;48.130;8.378;2023-05-23T07:13:15;92821.34;;;17.11;73.04
52249;BME280;38541;48.130;8.378;2023-05-23T07:15:42;92824.25;;;17.24;72.32
52249;BME280;38541;48.130;8.378;2023-05-23T07:18:12;92831.56;;;17.18;72.18
52249;BME280;38541;48.130;8.378;2023-05-23T07:20:39;92815.88;;;17.31;71.85
52249;BME280;38541;48.130;8.378;2023-05-23T07:23:14;92821.91;;;17.45;71.39
52249;BME280;38541;48.130;8.378;2023-05-23T07:25:41;92822.31;;;17.61;70.47
52249;BME280;38541;48.130;8.378;2023-05-23T07:28:28;92829.06;;;17.67;69.37
52249;BME280;38541;48.130;8.378;2023-05-23T07:30:55;92827.63;;;17.61;69.86
52249;BME280;38541;48.130;8.378;2023-05-23T07:33:27;92827.28;;;17.54;69.17
52249;BME280;38541;48.130;8.378;2023-05-23T07:35:59;92823.69;;;17.59;69.22
52249;BME280;38541;48.130;8.378;2023-05-23T07:38:26;92818.09;;;17.60;69.27
52249;BME280;38541;48.130;8.378;2023-05-23T07:40:52;92812.66;;;17.65;69.32
52249;BME280;38541;48.130;8.378;2023-05-23T07:43:35;92816.91;;;17.75;68.48
52249;BME280;38541;48.130;8.378;2023-05-23T07:46:02;92813.97;;;17.77;68.68
52249;BME280;38541;48.130;8.378;2023-05-23T07:48:29;92811.81;;;17.88;68.14
52249;BME280;38541;48.130;8.378;2023-05-23T07:50:57;92819.59;;;18.07;68.67
52249;BME280;38541;48.130;8.378;2023-05-23T07:53:23;92814.75;;;18.09;66.73
52249;BME280;38541;48.130;8.378;2023-05-23T07:55:51;92808.72;;;18.26;67.29
52249;BME280;38541;48.130;8.378;2023-05-23T07:58:19;92814.88;;;18.44;66.07
52249;BME280;38541;48.130;8.378;2023-05-23T08:00:46;92817.84;;;18.43;64.52
52249;BME280;38541;48.130;8.378;2023-05-23T08:03:37;92805.69;;;18.59;63.04
52249;BME280;38541;48.130;8.378;2023-05-23T08:06:09;92819.00;;;18.68;63.62
52249;BME280;38541;48.130;8.378;2023-05-23T08:08:36;92817.28;;;18.72;63.63
52249;BME280;38541;48.130;8.378;2023-05-23T08:11:06;92818.13;;;18.99;63.23
52249;BME280;38541;48.130;8.378;2023-05-23T08:13:39;92807.94;;;19.19;62.01
52249;BME280;38541;48.130;8.378;2023-05-23T08:16:35;92814.22;;;19.14;62.15
52249;BME280;38541;48.130;8.378;2023-05-23T08:19:07;92823.16;;;19.27;62.11
52249;BME280;38541;48.130;8.378;2023-05-23T08:21:34;92816.38;;;19.38;62.25
52249;BME280;38541;48.130;8.378;2023-05-23T08:24:01;92821.56;;;19.26;62.38
52249;BME280;38541;48.130;8.378;2023-05-23T08:26:28;92817.19;;;19.21;61.74
52249;BME280;38541;48.130;8.378;2023-05-23T08:29:01;92829.06;;;18.89;61.56
52249;BME280;38541;48.130;8.378;2023-05-23T08:31:30;92828.06;;;18.58;63.88
52249;BME280;38541;48.130;8.378;2023-05-23T08:33:58;92827.56;;;18.38;64.94
52249;BME280;38541;48.130;8.378;2023-05-23T08:36:24;92830.44;;;18.19;65.01
52249;BME280;38541;48.130;8.378;2023-05-23T08:38:51;92821.88;;;18.00;64.65
52249;BME280;38541;48.130;8.378;2023-05-23T08:41:28;92830.16;;;17.98;65.54
52249;BME280;38541;48.130;8.378;2023-05-23T08:44:01;92832.97;;;17.93;64.85
52249;BME280;38541;48.130;8.378;2023-05-23T08:46:33;92829.81;;;17.91;65.23
52249;BME280;38541;48.130;8.378;2023-05-23T08:49:01;92829.22;;;17.94;65.47
52249;BME280;38541;48.130;8.378;2023-05-23T08:51:30;92824.91;;;18.07;65.92
52249;BME280;38541;48.130;8.378;2023-05-23T08:54:01;92826.31;;;18.53;65.40
52249;BME280;38541;48.130;8.378;2023-05-23T08:56:29;92835.00;;;18.86;63.45
52249;BME280;38541;48.130;8.378;2023-05-23T08:58:57;92835.66;;;19.09;60.74
52249;BME280;38541;48.130;8.378;2023-05-23T09:01:25;92832.84;;;19.05;60.84
52249;BME280;38541;48.130;8.378;2023-05-23T09:03:55;92838.31;;;19.09;62.27
52249;BME280;38541;48.130;8.378;2023-05-23T09:06:28;92843.41;;;18.61;62.71
52249;BME280;38541;48.130;8.378;2023-05-23T09:08:55;92841.50;;;18.13;63.61
52249;BME280;38541;48.130;8.378;2023-05-23T09:11:23;92840.78;;;17.98;64.31
52249;BME280;38541;48.130;8.378;2023-05-23T09:13:51;92844.13;;;18.04;64.36
52249;BME280;38541;48.130;8.378;2023-05-23T09:16:20;92854.78;;;17.81;65.03
52249;BME280;38541;48.130;8.378;2023-05-23T09:18:50;92858.88;;;17.87;65.28
52249;BME280;38541;48.130;8.378;2023-05-23T09:21:19;92855.59;;;17.90;66.50
52249;BME280;38541;48.130;8.378;2023-05-23T09:24:33;92854.41;;;17.96;66.19
52249;BME280;38541;48.130;8.378;2023-05-23T09:27:01;92850.59;;;18.11;65.70
52249;BME280;38541;48.130;8.378;2023-05-23T09:29:29;92844.19;;;18.13;64.88
52249;BME280;38541;48.130;8.378;2023-05-23T09:31:59;92852.16;;;18.13;65.17
52249;BME280;38541;48.130;8.378;2023-05-23T09:37:15;92845.59;;;18.59;63.43
52249;BME280;38541;48.130;8.378;2023-05-23T09:39:46;92852.53;;;18.87;62.65
52249;BME280;38541;48.130;8.378;2023-05-23T09:42:20;92841.16;;;19.04;59.68
52249;BME280;38541;48.130;8.378;2023-05-23T09:44:50;92837.69;;;19.21;58.93
52249;BME280;38541;48.130;8.378;2023-05-23T09:47:17;92828.28;;;19.50;59.23
52249;BME280;38541;48.130;8.378;2023-05-23T09:49:45;92837.03;;;19.68;58.64
52249;BME280;38541;48.130;8.378;2023-05-23T09:52:11;92839.38;;;19.70;58.96
52249;BME280;38541;48.130;8.378;2023-05-23T09:54:39;92841.94;;;19.22;57.84
52249;BME280;38541;48.130;8.378;2023-05-23T09:57:09;92836.94;;;19.12;59.38
52249;BME280;38541;48.130;8.378;2023-05-23T09:59:41;92836.28;;;19.32;58.60
52249;BME280;38541;48.130;8.378;2023-05-23T10:02:10;92842.72;;;19.58;58.78
52249;BME280;38541;48.130;8.378;2023-05-23T10:04:38;92829.22;;;19.45;58.67
52249;BME280;38541;48.130;8.378;2023-05-23T10:07:12;92831.91;;;19.28;57.58
52249;BME280;38541;48.130;8.378;2023-05-23T10:09:47;92837.69;;;19.38;57.02
52249;BME280;38541;48.130;8.378;2023-05-23T10:12:41;92833.78;;;19.45;56.94
52249;BME280;38541;48.130;8.378;2023-05-23T10:15:12;92831.88;;;19.54;56.69
52249;BME280;38541;48.130;8.378;2023-05-23T10:17:52;92838.00;;;19.63;57.55
52249;BME280;38541;48.130;8.378;2023-05-23T10:20:24;92842.25;;;19.56;56.78
52249;BME280;38541;48.130;8.378;2023-05-23T10:22:53;92826.53;;;19.72;56.27
52249;BME280;38541;48.130;8.378;2023-05-23T10:25:21;92835.72;;;20.09;55.35
52249;BME280;38541;48.130;8.378;2023-05-23T10:27:48;92836.53;;;19.92;57.09
52249;BME280;38541;48.130;8.378;2023-05-23T10:30:19;92833.56;;;19.85;54.70
52249;BME280;38541;48.130;8.378;2023-05-23T10:32:45;92836.22;;;19.94;55.70
52249;BME280;38541;48.130;8.378;2023-05-23T10:35:21;92838.41;;;20.01;56.15
52249;BME280;38541;48.130;8.378;2023-05-23T10:41:00;92842.50;;;19.98;57.58
52249;BME280;38541;48.130;8.378;2023-05-23T10:43:44;92845.41;;;20.14;56.28
52249;BME280;38541;48.130;8.378;2023-05-23T10:46:13;92839.28;;;20.22;54.65
52249;BME280;38541;48.130;8.378;2023-05-23T10:48:42;92838.41;;;20.39;54.68
52249;BME280;38541;48.130;8.378;2023-05-23T10:51:11;92838.19;;;20.23;54.35
52249;BME280;38541;48.130;8.378;2023-05-23T10:53:43;92836.50;;;20.10;52.93
52249;BME280;38541;48.130;8.378;2023-05-23T10:56:18;92830.16;;;20.23;53.63
52249;BME280;38541;48.130;8.378;2023-05-23T10:58:55;92841.13;;;20.31;54.25
52249;BME280;38541;48.130;8.378;2023-05-23T11:01:23;92842.03;;;20.35;54.45
52249;BME280;38541;48.130;8.378;2023-05-23T11:03:52;92856.38;;;20.21;57.17
52249;BME280;38541;48.130;8.378;2023-05-23T11:09:15;92863.56;;;19.56;60.12
52249;BME280;38541;48.130;8.378;2023-05-23T11:12:03;92867.34;;;19.28;61.01
52249;BME280;38541;48.130;8.378;2023-05-23T11:17:00;92864.59;;;18.93;62.25
52249;BME280;38541;48.130;8.378;2023-05-23T11:19:27;92865.69;;;18.83;62.74
52249;BME280;38541;48.130;8.378;2023-05-23T11:22:01;92873.22;;;18.90;62.46
52249;BME280;38541;48.130;8.378;2023-05-23T11:24:48;92870.22;;;18.91;62.99
52249;BME280;38541;48.130;8.378;2023-05-23T11:27:37;92867.41;;;18.88;61.43
52249;BME280;38541;48.130;8.378;2023-05-23T11:30:10;92869.19;;;19.10;61.00
52249;BME280;38541;48.130;8.378;2023-05-23T11:32:41;92862.13;;;19.32;60.81
52249;BME280;38541;48.130;8.378;2023-05-23T11:35:09;92863.69;;;19.59;59.70
52249;BME280;38541;48.130;8.378;2023-05-23T11:37:39;92860.97;;;20.12;60.05
52249;BME280;38541;48.130;8.378;2023-05-23T11:40:31;92862.84;;;20.20;57.46
52249;BME280;38541;48.130;8.378;2023-05-23T11:42:58;92862.84;;;20.20;57.62
52249;BME280;38541;48.130;8.378;2023-05-23T11:45:27;92856.97;;;20.27;57.80
52249;BME280;38541;48.130;8.378;2023-05-23T11:47:53;92858.59;;;20.19;58.00
52249;BME280;38541;48.130;8.378;2023-05-23T11:50:20;92865.97;;;20.22;56.93
52249;BME280;38541;48.130;8.378;2023-05-23T11:52:47;92864.38;;;20.30;57.22
52249;BME280;38541;48.130;8.378;2023-05-23T11:55:18;92856.06;;;20.62;57.11
52249;BME280;38541;48.130;8.378;2023-05-23T11:57:45;92854.31;;;20.66;56.88
52249;BME280;38541;48.130;8.378;2023-05-23T12:00:12;92862.13;;;20.71;56.13
52249;BME280;38541;48.130;8.378;2023-05-23T12:02:41;92854.91;;;20.72;55.76
52249;BME280;38541;48.130;8.378;2023-05-23T12:05:12;92852.22;;;20.80;57.28
52249;BME280;38541;48.130;8.378;2023-05-23T12:07:49;92847.03;;;20.75;56.15
52249;BME280;38541;48.130;8.378;2023-05-23T12:10:16;92849.00;;;20.96;57.06
52249;BME280;38541;48.130;8.378;2023-05-23T12:12:44;92846.34;;;21.72;55.66
52249;BME280;38541;48.130;8.378;2023-05-23T12:15:11;92838.53;;;22.26;54.61
52249;BME280;38541;48.130;8.378;2023-05-23T12:17:42;92837.66;;;22.21;53.57
52249;BME280;38541;48.130;8.378;2023-05-23T12:20:10;92837.91;;;22.29;53.48
52249;BME280;38541;48.130;8.378;2023-05-23T12:22:37;92835.47;;;21.90;53.77
52249;BME280;38541;48.130;8.378;2023-05-23T12:25:07;92830.56;;;21.58;53.66
52249;BME280;38541;48.130;8.378;2023-05-23T12:27:35;92831.78;;;21.27;54.04
52249;BME280;38541;48.130;8.378;2023-05-23T12:32:39;92825.94;;;22.14;55.07
52249;BME280;38541;48.130;8.378;2023-05-23T12:35:10;92834.13;;;22.92;49.89
52249;BME280;38541;48.130;8.378;2023-05-23T12:37:44;92835.25;;;22.91;49.96
52249;BME280;38541;48.130;8.378;2023-05-23T12:40:13;92839.41;;;23.17;50.31
52249;BME280;38541;48.130;8.378;2023-05-23T12:42:53;92827.19;;;23.44;47.61
52249;BME280;38541;48.130;8.378;2023-05-23T12:45:33;92830.72;;;23.61;47.56
52249;BME280;38541;48.130;8.378;2023-05-23T12:48:00;92818.03;;;23.45;46.91
52249;BME280;38541;48.130;8.378;2023-05-23T12:50:27;92825.25;;;23.57;47.06
52249;BME280;38541;48.130;8.378;2023-05-23T12:52:54;92823.75;;;23.44;46.71
52249;BME280;38541;48.130;8.378;2023-05-23T12:55:21;92823.16;;;22.97;47.96
52249;BME280;38541;48.130;8.378;2023-05-23T12:57:48;92825.91;;;22.47;50.01
52249;BME280;38541;48.130;8.378;2023-05-23T13:00:14;92823.00;;;21.94;50.77
52249;BME280;38541;48.130;8.378;2023-05-23T13:02:41;92829.69;;;21.54;52.19
52249;BME280;38541;48.130;8.378;2023-05-23T13:05:08;92831.03;;;21.39;52.90
52249;BME280;38541;48.130;8.378;2023-05-23T13:07:34;92829.84;;;21.49;53.06
52249;BME280;38541;48.130;8.378;2023-05-23T13:10:01;92819.03;;;22.13;52.28
52249;BME280;38541;48.130;8.378;2023-05-23T13:12:28;92823.75;;;22.78;50.81
52249;BME280;38541;48.130;8.378;2023-05-23T13:14:55;92820.59;;;23.99;46.42
52249;BME280;38541;48.130;8.378;2023-05-23T13:17:23;92822.84;;;23.40;46.99
52249;BME280;38541;48.130;8.378;2023-05-23T13:19:49;92823.41;;;22.92;49.64
52249;BME280;38541;48.130;8.378;2023-05-23T13:22:16;92819.47;;;22.15;49.86
52249;BME280;38541;48.130;8.378;2023-05-23T13:24:43;92821.22;;;21.98;51.78
52249;BME280;38541;48.130;8.378;2023-05-23T13:27:10;92825.22;;;21.58;51.94
52249;BME280;38541;48.130;8.378;2023-05-23T13:29:36;92823.47;;;21.41;53.02
52249;BME280;38541;48.130;8.378;2023-05-23T13:32:03;92819.13;;;21.36;52.13